createdAt,value
2022-07-29T00:00:06.872Z,100043.41
2022-07-29T00:01:08.320Z,100047.47
2022-07-29T00:02:20.774Z,100048.66
2022-07-29T00:03:22.349Z,100046.63
2022-07-29T00:04:23.958Z,100054.75
2022-07-29T00:05:25.551Z,100046.56
2022-07-29T00:06:27.077Z,100051.44
2022-07-29T00:07:28.547Z,100046.94
2022-07-29T00:08:30.057Z,100048.97
2022-07-29T00:09:32.152Z,100046.50
2022-07-29T00:10:33.682Z,100047.69
2022-07-29T00:11:35.199Z,100048.06
2022-07-29T00:12:37.060Z,100050.09
2022-07-29T00:13:39.127Z,100043.09
2022-07-29T00:14:40.659Z,100041.44
2022-07-29T00:15:44.448Z,100053.69
2022-07-29T00:16:45.956Z,100047.53
2022-07-29T00:17:47.647Z,100038.13
2022-07-29T00:18:49.214Z,100038.13
2022-07-29T00:19:50.754Z,100030.75
2022-07-29T00:20:52.394Z,100027.41
2022-07-29T00:21:53.924Z,100033.13
2022-07-29T00:22:55.445Z,100040.06
2022-07-29T00:23:56.975Z,100031.88
2022-07-29T00:24:58.455Z,100026.53
2022-07-29T00:25:59.960Z,100036.25
2022-07-29T00:27:01.467Z,100028.91
2022-07-29T00:28:02.987Z,100032.97
2022-07-29T00:29:32.952Z,100028.44
2022-07-29T00:30:26.358Z,100036.56
2022-07-29T00:31:27.949Z,100026.34
2022-07-29T00:32:29.575Z,100024.69
2022-07-29T00:33:31.144Z,100020.19
2022-07-29T00:34:51.214Z,100027.09
2022-07-29T00:35:52.819Z,100018.91
2022-07-29T00:36:54.932Z,100020.94
2022-07-29T00:37:56.411Z,100025.81
2022-07-29T00:38:57.953Z,100024.97
2022-07-29T00:39:59.414Z,100022.13
2022-07-29T00:41:00.977Z,100024.13
2022-07-29T00:42:05.681Z,100022.50
2022-07-29T00:43:07.247Z,100021.66
2022-07-29T00:44:08.767Z,100022.50
2022-07-29T00:45:10.410Z,100027.75
2022-07-29T00:46:12.021Z,100025.72
2022-07-29T00:47:13.675Z,100021.22
2022-07-29T00:48:15.177Z,100026.09
2022-07-29T00:49:16.728Z,100019.56
2022-07-29T00:50:18.273Z,100014.69
2022-07-29T00:51:19.804Z,100023.25
2022-07-29T00:52:21.292Z,100018.72
2022-07-29T00:53:22.783Z,100010.16
2022-07-29T00:54:24.399Z,100015.06
2022-07-29T00:55:25.923Z,100012.19
2022-07-29T00:56:27.487Z,100004.84
2022-07-29T00:57:28.996Z,100009.72
2022-07-29T00:58:30.489Z,100012.94
2022-07-29T00:59:35.164Z,100001.53
2022-07-29T01:00:37.871Z,99999.88
2022-07-29T01:01:39.548Z,100001.53
2022-07-29T01:02:41.113Z,99998.22
2022-07-29T01:03:42.580Z,99993.34
2022-07-29T01:04:44.053Z,99989.66
2022-07-29T01:05:50.458Z,99991.69
2022-07-29T01:06:53.137Z,99988.00
2022-07-29T01:07:55.060Z,99984.28
2022-07-29T01:08:56.531Z,99977.75
2022-07-29T01:09:58.012Z,99981.81
2022-07-29T01:11:00.100Z,99983.03
2022-07-29T01:12:01.596Z,99977.69
2022-07-29T01:13:03.118Z,99985.44
2022-07-29T01:14:10.036Z,99988.28
2022-07-29T01:15:11.757Z,99989.47
2022-07-29T01:16:18.268Z,99987.81
2022-07-29T01:17:25.121Z,99996.38
2022-07-29T01:18:37.080Z,99990.69
2022-07-29T01:19:41.348Z,99995.94
2022-07-29T01:20:42.808Z,99993.09
2022-07-29T01:21:54.692Z,99994.66
2022-07-29T01:23:10.480Z,99992.63
2022-07-29T01:24:26.336Z,99992.97
2022-07-29T01:25:28.347Z,99996.22
2022-07-29T01:26:39.512Z,99991.31
2022-07-29T01:27:42.392Z,99993.72
2022-07-29T01:28:57.811Z,99991.25
2022-07-29T01:29:59.809Z,100003.50
2022-07-29T01:31:01.651Z,99999.34
2022-07-29T01:32:04.564Z,99992.00
2022-07-29T01:33:08.004Z,100001.75
2022-07-29T01:34:09.753Z,99995.59
2022-07-29T01:35:11.256Z,99987.88
2022-07-29T01:36:13.957Z,99990.28
2022-07-29T01:37:23.340Z,99994.28
2022-07-29T01:38:25.071Z,99991.81
2022-07-29T01:39:33.439Z,99988.50
2022-07-29T01:40:47.329Z,99984.00
2022-07-29T01:41:56.704Z,99981.53
2022-07-29T01:42:58.363Z,99981.06
2022-07-29T01:44:03.793Z,99977.72
2022-07-29T01:45:20.298Z,99978.09
2022-07-29T01:46:51.635Z,99973.13
2022-07-29T01:47:53.239Z,99974.31
2022-07-29T01:48:56.338Z,99965.31
2022-07-29T01:49:57.952Z,99973.88
2022-07-29T01:51:05.233Z,99972.22
2022-07-29T01:52:12.422Z,99964.41
2022-07-29T01:53:13.943Z,99969.66
2022-07-29T01:54:21.389Z,99961.81
2022-07-29T01:55:23.496Z,99960.16
2022-07-29T01:56:25.046Z,99964.59
2022-07-29T01:57:27.330Z,99956.03
2022-07-29T01:58:29.596Z,99959.25
2022-07-29T01:59:31.099Z,99969.00
2022-07-29T02:00:33.868Z,99964.50
2022-07-29T02:01:35.755Z,99965.69
2022-07-29T02:02:38.079Z,99969.75
2022-07-29T02:03:39.575Z,99969.25
2022-07-29T02:04:41.290Z,99967.25
2022-07-29T02:05:43.406Z,99967.63
2022-07-29T02:06:44.961Z,99972.88
2022-07-29T02:07:47.324Z,99965.50
2022-07-29T02:08:48.829Z,99971.56
2022-07-29T02:09:50.625Z,99966.69
2022-07-29T02:10:52.364Z,99970.75
2022-07-29T02:11:54.406Z,99971.94
2022-07-29T02:12:56.071Z,99970.28
2022-07-29T02:13:57.659Z,99962.94
2022-07-29T02:15:00.565Z,99961.28
2022-07-29T02:16:02.119Z,99972.69
2022-07-29T02:17:04.128Z,99969.00
2022-07-29T02:18:09.317Z,99969.34
2022-07-29T02:19:10.899Z,99967.69
2022-07-29T02:20:12.467Z,99970.09
2022-07-29T02:21:15.033Z,99962.75
2022-07-29T02:22:17.777Z,99972.50
2022-07-29T02:23:20.637Z,99969.19
2022-07-29T02:24:22.334Z,99967.53
2022-07-29T02:25:23.904Z,99965.06
2022-07-29T02:26:25.555Z,99967.44
2022-07-29T02:27:28.163Z,99960.06
2022-07-29T02:28:29.899Z,99963.28
2022-07-29T02:29:32.147Z,99978.72
2022-07-29T02:30:33.618Z,99971.38
2022-07-29T02:31:35.534Z,99975.44
2022-07-29T02:32:37.620Z,99974.59
2022-07-29T02:33:41.718Z,99972.56
2022-07-29T02:34:43.285Z,99972.13
2022-07-29T02:35:44.897Z,99977.81
2022-07-29T02:36:46.438Z,99969.63
2022-07-29T02:38:11.008Z,99979.75
2022-07-29T02:39:13.254Z,99973.56
2022-07-29T02:40:15.413Z,99971.91
2022-07-29T02:41:34.623Z,99973.94
2022-07-29T02:42:36.138Z,99976.78
2022-07-29T02:43:37.635Z,99973.44
2022-07-29T02:44:39.148Z,99976.66
2022-07-29T02:47:56.023Z,99970.88
2022-07-29T02:48:59.532Z,99964.22
2022-07-29T02:50:09.372Z,99969.09
2022-07-29T02:51:15.147Z,99960.09
2022-07-29T02:52:39.125Z,99963.31
2022-07-29T02:53:40.648Z,99973.88
2022-07-29T02:54:43.415Z,99962.50
2022-07-29T02:55:47.828Z,99972.22
2022-07-29T02:56:49.448Z,99968.56
2022-07-29T02:57:54.126Z,99966.06
2022-07-29T02:58:57.448Z,99970.13
2022-07-29T02:59:59.356Z,99968.09
2022-07-29T03:01:02.027Z,99970.50
2022-07-29T03:02:03.557Z,99973.69
2022-07-29T03:03:06.207Z,99965.50
2022-07-29T03:04:07.800Z,99967.50
2022-07-29T03:05:10.375Z,99963.84
2022-07-29T03:06:31.369Z,99958.50
2022-07-29T03:07:33.774Z,99957.69
2022-07-29T03:08:35.287Z,99960.06
2022-07-29T03:09:37.018Z,99962.91
2022-07-29T03:10:38.700Z,99960.44
2022-07-29T03:11:49.156Z,99966.13
2022-07-29T03:12:52.292Z,99967.34
2022-07-29T03:13:53.850Z,99964.47
2022-07-29T03:14:55.541Z,99955.47
2022-07-29T03:15:57.101Z,99959.84
2022-07-29T03:16:58.708Z,99962.72
2022-07-29T03:18:00.379Z,99967.56
2022-07-29T03:19:01.879Z,99975.66
2022-07-29T03:20:03.552Z,99965.47
2022-07-29T03:21:05.101Z,99967.47
2022-07-29T03:22:06.630Z,99967.84
2022-07-29T03:23:08.789Z,99969.03
2022-07-29T03:24:10.995Z,99965.72
2022-07-29T03:25:13.045Z,99969.31
2022-07-29T03:26:14.547Z,99966.47
2022-07-29T03:27:16.081Z,99965.97
2022-07-29T03:28:17.635Z,99972.88
2022-07-29T03:29:20.904Z,99962.66
2022-07-29T03:30:22.696Z,99970.75
2022-07-29T03:31:24.850Z,99971.94
2022-07-29T03:32:26.410Z,99976.72
2022-07-29T03:33:29.928Z,99971.84
2022-07-29T03:34:31.404Z,99975.88
2022-07-29T03:35:32.900Z,99977.41
2022-07-29T03:36:34.444Z,99967.22
2022-07-29T03:37:37.462Z,99974.09
2022-07-29T03:38:39.035Z,99965.91
2022-07-29T03:39:41.024Z,99971.63
2022-07-29T03:40:53.175Z,99976.47
2022-07-29T03:41:55.503Z,99974.38
2022-07-29T03:42:56.984Z,99980.06
2022-07-29T03:43:58.531Z,99986.13
2022-07-29T03:45:01.088Z,99979.56
2022-07-29T03:46:02.619Z,99972.22
2022-07-29T03:47:04.231Z,99976.25
2022-07-29T03:48:09.696Z,99977.09
2022-07-29T03:49:11.460Z,99981.44
2022-07-29T03:50:14.244Z,99971.25
2022-07-29T03:51:15.782Z,99981.00
2022-07-29T03:52:17.306Z,99979.34
2022-07-29T03:53:18.818Z,99977.69
2022-07-29T03:54:21.157Z,99981.72
2022-07-29T03:55:23.043Z,99974.38
2022-07-29T03:56:24.771Z,99981.25
2022-07-29T03:57:26.507Z,99973.91
2022-07-29T03:58:28.430Z,99980.78
2022-07-29T03:59:30.021Z,99979.13
2022-07-29T04:00:31.559Z,99978.31
2022-07-29T04:01:33.685Z,99970.09
2022-07-29T04:02:35.287Z,99972.94
2022-07-29T04:03:36.767Z,99983.88
2022-07-29T04:04:38.355Z,99969.63
2022-07-29T04:05:39.928Z,99976.53
2022-07-29T04:06:41.708Z,99983.41
2022-07-29T04:07:46.282Z,99989.47
2022-07-29T04:08:47.774Z,99981.28
2022-07-29T04:09:49.390Z,99979.63
2022-07-29T04:10:50.990Z,99980.81
2022-07-29T04:12:02.104Z,99985.69
2022-07-29T04:13:05.517Z,99988.88
2022-07-29T04:14:07.034Z,99984.34
2022-07-29T04:15:08.760Z,99990.03
2022-07-29T04:16:10.322Z,99988.38
2022-07-29T04:17:11.856Z,99987.56
2022-07-29T04:18:13.364Z,99981.03
2022-07-29T04:19:14.836Z,99985.91
2022-07-29T04:20:16.533Z,99986.72
2022-07-29T04:21:18.080Z,99991.59
2022-07-29T04:22:19.567Z,99994.81
2022-07-29T04:23:21.105Z,99987.47
2022-07-29T04:24:22.643Z,99986.63
2022-07-29T04:25:24.169Z,99992.31
2022-07-29T04:26:25.679Z,99991.50
2022-07-29T04:27:27.247Z,99985.81
2022-07-29T04:28:28.741Z,99984.16
2022-07-29T04:29:30.359Z,99993.88
2022-07-29T04:30:32.663Z,99993.03
2022-07-29T04:31:34.243Z,99988.19
2022-07-29T04:32:35.767Z,99984.50
2022-07-29T04:33:37.272Z,99989.38
2022-07-29T04:34:39.147Z,99983.69
2022-07-29T04:35:50.072Z,99986.53
2022-07-29T04:36:52.288Z,99977.28
2022-07-29T04:37:53.861Z,99990.56
2022-07-29T04:38:55.739Z,99990.56
2022-07-29T04:39:57.217Z,99995.41
2022-07-29T04:40:58.872Z,99988.91
2022-07-29T04:42:00.821Z,99990.91
2022-07-29T04:43:03.324Z,99987.25
2022-07-29T04:44:07.780Z,99988.91
2022-07-29T04:45:10.383Z,99992.94
2022-07-29T04:46:12.295Z,99981.56
2022-07-29T04:47:13.890Z,99986.28
2022-07-29T04:48:15.414Z,99982.25
2022-07-29T04:49:16.986Z,99992.81
2022-07-29T04:50:18.509Z,99985.47
2022-07-29T04:51:20.113Z,99996.72
2022-07-29T04:52:21.613Z,99991.41
2022-07-29T04:53:23.096Z,99985.72
2022-07-29T04:54:24.811Z,99991.75
2022-07-29T04:55:27.377Z,99986.06
2022-07-29T04:56:28.881Z,99989.75
2022-07-29T04:57:30.444Z,99991.75
2022-07-29T04:58:31.986Z,99991.75
2022-07-29T04:59:33.454Z,99990.09
2022-07-29T05:00:35.285Z,99997.44
2022-07-29T05:01:36.860Z,99994.97
2022-07-29T05:02:38.521Z,99996.63
2022-07-29T05:03:40.049Z,99995.78
2022-07-29T05:04:41.530Z,99994.59
2022-07-29T05:05:43.387Z,99991.75
2022-07-29T05:06:44.902Z,100001.94
2022-07-29T05:07:46.422Z,100001.13
2022-07-29T05:08:47.953Z,99995.91
2022-07-29T05:09:49.471Z,99997.91
2022-07-29T05:10:51.007Z,99996.72
2022-07-29T05:11:52.553Z,99998.38
2022-07-29T05:12:54.107Z,99987.00
2022-07-29T05:13:55.609Z,99993.53
2022-07-29T05:14:57.091Z,100001.22
2022-07-29T05:16:04.856Z,100000.88
2022-07-29T05:17:07.084Z,99996.00
2022-07-29T05:18:08.671Z,100000.50
2022-07-29T05:19:14.111Z,100005.84
2022-07-29T05:20:16.454Z,100000.97
2022-07-29T05:21:17.982Z,100005.47
2022-07-29T05:22:20.136Z,99994.91
2022-07-29T05:23:21.622Z,100001.47
2022-07-29T05:24:23.129Z,99995.78
2022-07-29T05:25:24.950Z,99997.44
2022-07-29T05:26:46.060Z,100003.59
2022-07-29T05:27:47.571Z,99999.91
2022-07-29T05:28:52.558Z,100004.44
2022-07-29T05:29:54.076Z,99990.66
2022-07-29T05:30:55.878Z,99998.84
2022-07-29T05:31:57.516Z,100003.34
2022-07-29T05:32:59.015Z,99995.28
2022-07-29T05:34:00.615Z,99998.59
2022-07-29T05:35:02.149Z,100001.94
2022-07-29T05:36:07.926Z,100003.56
2022-07-29T05:37:09.808Z,100007.72
2022-07-29T05:38:11.324Z,100011.03
2022-07-29T05:39:13.944Z,99998.47
2022-07-29T05:40:15.575Z,100005.44
2022-07-29T05:41:17.561Z,100000.56
2022-07-29T05:42:19.166Z,100011.63
2022-07-29T05:43:21.899Z,100008.06
2022-07-29T05:44:25.376Z,100011.38
2022-07-29T05:45:27.106Z,100019.19
2022-07-29T05:46:28.988Z,100013.50
2022-07-29T05:47:31.565Z,100011.09
2022-07-29T05:48:33.360Z,100003.03
2022-07-29T05:49:35.013Z,100012.06
2022-07-29T05:50:36.565Z,100015.41
2022-07-29T05:51:50.308Z,100007.34
2022-07-29T05:52:51.823Z,100012.31
2022-07-29T05:53:53.615Z,100007.44
2022-07-29T05:54:55.158Z,100008.41
2022-07-29T05:55:56.753Z,100009.00
2022-07-29T05:56:58.239Z,100005.66
2022-07-29T05:57:59.713Z,100007.75
2022-07-29T05:59:01.233Z,100011.06
2022-07-29T06:00:02.748Z,100007.03
2022-07-29T06:01:13.872Z,100011.53
2022-07-29T06:02:15.525Z,100012.03
2022-07-29T06:03:17.068Z,100018.19
2022-07-29T06:04:18.905Z,100014.59
2022-07-29T06:05:21.020Z,100015.06
2022-07-29T06:06:22.545Z,100017.19
2022-07-29T06:07:24.159Z,100025.38
2022-07-29T06:08:25.664Z,100023.84
2022-07-29T06:09:27.158Z,100023.09
2022-07-29T06:10:28.727Z,100030.91
2022-07-29T06:11:30.274Z,100030.56
2022-07-29T06:12:31.793Z,100024.84
2022-07-29T06:13:33.516Z,100020.44
2022-07-29T06:14:35.122Z,100017.72
2022-07-29T06:15:36.711Z,100021.84
2022-07-29T06:16:38.347Z,100019.09
2022-07-29T06:17:39.857Z,100020.41
2022-07-29T06:19:01.345Z,100021.34
2022-07-29T06:20:03.823Z,100026.31
2022-07-29T06:21:08.263Z,100030.44
2022-07-29T06:22:09.809Z,100024.03
2022-07-29T06:23:11.352Z,100027.38
2022-07-29T06:24:13.716Z,100018.09
2022-07-29T06:25:15.532Z,100028.38
2022-07-29T06:26:17.190Z,100023.63
2022-07-29T06:27:18.706Z,100022.06
2022-07-29T06:28:20.220Z,100027.03
2022-07-29T06:29:21.679Z,100025.47
2022-07-29T06:30:23.247Z,100027.94
2022-07-29T06:31:24.836Z,100036.63
2022-07-29T06:32:27.381Z,100028.53
2022-07-29T06:33:29.105Z,100022.44
2022-07-29T06:34:30.570Z,100023.72
2022-07-29T06:35:38.283Z,100022.53
2022-07-29T06:36:43.143Z,100021.78
2022-07-29T06:37:44.657Z,100021.78
2022-07-29T06:38:51.397Z,100023.44
2022-07-29T06:40:13.684Z,100022.28
2022-07-29T06:41:16.974Z,100037.00
2022-07-29T06:42:18.489Z,100030.09
2022-07-29T06:43:20.678Z,100031.75
2022-07-29T06:44:22.151Z,100031.38
2022-07-29T06:45:23.678Z,100030.19
2022-07-29T06:46:25.232Z,100029.44
2022-07-29T06:47:26.853Z,100027.41
2022-07-29T06:48:28.604Z,100027.03
2022-07-29T06:49:30.205Z,100028.34
2022-07-29T06:50:31.791Z,100030.00
2022-07-29T06:51:33.284Z,100025.59
2022-07-29T06:52:34.859Z,100029.72
2022-07-29T06:53:36.560Z,100027.78
2022-07-29T06:54:39.627Z,100031.13
2022-07-29T06:55:41.184Z,100038.97
2022-07-29T06:56:43.951Z,100033.34
2022-07-29T06:57:45.575Z,100041.97
2022-07-29T06:58:47.504Z,100035.94
2022-07-29T06:59:49.110Z,100038.41
2022-07-29T07:00:50.668Z,100037.28
2022-07-29T07:01:52.348Z,100033.69
2022-07-29T07:02:54.074Z,100039.50
2022-07-29T07:03:55.635Z,100043.63
2022-07-29T07:04:57.131Z,100046.56
2022-07-29T07:05:58.674Z,100045.38
2022-07-29T07:07:01.785Z,100042.97
2022-07-29T07:08:03.617Z,100055.31
2022-07-29T07:09:05.230Z,100048.84
2022-07-29T07:10:06.887Z,100050.13
2022-07-29T07:11:08.423Z,100047.34
2022-07-29T07:12:10.005Z,100047.47
2022-07-29T07:13:11.529Z,100045.88
2022-07-29T07:14:13.079Z,100060.25
2022-07-29T07:15:14.659Z,100056.63
2022-07-29T07:16:16.845Z,100057.56
2022-07-29T07:17:18.447Z,100062.91
2022-07-29T07:18:19.962Z,100060.97
2022-07-29T07:19:21.500Z,100061.03
2022-07-29T07:20:23.009Z,100061.97
2022-07-29T07:21:26.955Z,100054.69
2022-07-29T07:22:36.977Z,100062.50
2022-07-29T07:23:40.247Z,100060.53
2022-07-29T07:24:41.791Z,100060.66
2022-07-29T07:25:43.318Z,100057.84
2022-07-29T07:26:44.815Z,100056.66
2022-07-29T07:27:46.359Z,100051.81
2022-07-29T07:28:48.045Z,100060.94
2022-07-29T07:29:49.600Z,100052.00
2022-07-29T07:30:51.100Z,100055.31
2022-07-29T07:31:56.292Z,100056.19
2022-07-29T07:33:00.742Z,100054.16
2022-07-29T07:34:02.399Z,100045.53
2022-07-29T07:35:06.906Z,100053.06
2022-07-29T07:36:08.447Z,100047.78
2022-07-29T07:37:10.062Z,100058.47
2022-07-29T07:38:11.559Z,100051.63
2022-07-29T07:39:13.031Z,100051.69
2022-07-29T07:40:18.523Z,100050.09
2022-07-29T07:41:20.560Z,100052.63
2022-07-29T07:42:22.241Z,100053.53
2022-07-29T07:43:23.835Z,100040.88
2022-07-29T07:44:25.338Z,100049.53
2022-07-29T07:45:26.963Z,100047.94
2022-07-29T07:46:28.491Z,100034.09
2022-07-29T07:47:30.154Z,100043.94
2022-07-29T07:48:31.921Z,100036.19
2022-07-29T07:49:33.448Z,100042.81
2022-07-29T07:50:35.180Z,100038.38
2022-07-29T07:51:36.747Z,100041.66
2022-07-29T07:52:51.052Z,100040.06
2022-07-29T07:53:52.618Z,100043.41
2022-07-29T07:54:55.576Z,100041.81
2022-07-29T07:56:13.000Z,100040.22
2022-07-29T07:57:14.863Z,100033.28
2022-07-29T07:58:16.369Z,100044.72
2022-07-29T07:59:17.916Z,100043.97
2022-07-29T08:00:19.467Z,100047.66
2022-07-29T08:01:24.607Z,100043.66
2022-07-29T08:02:26.338Z,100045.31
2022-07-29T08:03:27.847Z,100045.75
2022-07-29T08:04:29.843Z,100050.28
2022-07-29T08:05:31.517Z,100050.72
2022-07-29T08:06:34.656Z,100041.75
2022-07-29T08:07:36.660Z,100043.00
2022-07-29T08:08:38.189Z,100049.66
2022-07-29T08:09:39.767Z,100046.47
2022-07-29T08:10:53.353Z,100048.56
2022-07-29T08:11:54.902Z,100046.63
2022-07-29T08:12:56.412Z,100045.06
2022-07-29T08:13:58.044Z,100051.72
2022-07-29T08:14:59.676Z,100049.72
2022-07-29T08:16:02.609Z,100047.28
2022-07-29T08:17:04.311Z,100045.31
2022-07-29T08:18:08.754Z,100040.47
2022-07-29T08:19:10.554Z,100049.13
2022-07-29T08:20:12.163Z,100058.53
2022-07-29T08:21:14.800Z,100054.50
2022-07-29T08:22:16.552Z,100051.72
2022-07-29T08:23:19.988Z,100058.72
2022-07-29T08:24:40.456Z,100055.06
2022-07-29T08:25:42.555Z,100048.97
2022-07-29T08:26:44.133Z,100055.50
2022-07-29T08:27:45.644Z,100053.91
2022-07-29T08:28:49.565Z,100054.38
2022-07-29T08:29:51.111Z,100050.28
2022-07-29T08:30:52.727Z,100052.38
2022-07-29T08:31:54.627Z,100058.09
2022-07-29T08:32:56.549Z,100059.75
2022-07-29T08:34:00.706Z,100056.53
2022-07-29T08:35:02.327Z,100061.47
2022-07-29T08:36:03.971Z,100060.34
2022-07-29T08:37:05.479Z,100063.25
2022-07-29T08:38:07.012Z,100058.78
2022-07-29T08:39:08.511Z,100059.22
2022-07-29T08:40:10.318Z,100068.25
2022-07-29T08:41:11.901Z,100067.06
2022-07-29T08:42:13.426Z,100062.63
2022-07-29T08:43:14.983Z,100063.06
2022-07-29T08:44:17.080Z,100063.06
2022-07-29T08:45:24.374Z,100060.25
2022-07-29T08:46:25.914Z,100055.38
2022-07-29T08:47:27.475Z,100045.56
2022-07-29T08:48:29.009Z,100058.66
2022-07-29T08:49:30.486Z,100053.38
2022-07-29T08:50:31.997Z,100055.44
2022-07-29T08:51:33.515Z,100055.88
2022-07-29T08:52:37.021Z,100063.69
2022-07-29T08:53:39.154Z,100058.84
2022-07-29T08:54:40.686Z,100056.41
2022-07-29T08:55:45.565Z,100059.72
2022-07-29T08:56:51.269Z,100057.72
2022-07-29T08:57:54.451Z,100060.66
2022-07-29T08:58:59.070Z,100057.41
2022-07-29T09:00:06.451Z,100048.03
2022-07-29T09:01:12.282Z,100060.34
2022-07-29T09:02:20.164Z,100060.81
2022-07-29T09:03:23.641Z,100055.94
2022-07-29T09:04:25.235Z,100059.66
2022-07-29T09:05:26.896Z,100060.09
2022-07-29T09:06:32.364Z,100057.69
2022-07-29T09:07:34.799Z,100049.50
2022-07-29T09:08:36.684Z,100051.97
2022-07-29T09:09:40.780Z,100058.53
2022-07-29T09:10:42.285Z,100058.97
2022-07-29T09:11:43.786Z,100056.94
2022-07-29T09:12:45.328Z,100053.66
2022-07-29T09:13:47.479Z,100059.44
2022-07-29T09:14:49.218Z,100053.75
2022-07-29T09:15:50.739Z,100056.69
2022-07-29T09:16:54.226Z,100059.97
2022-07-29T09:17:57.525Z,100058.00
2022-07-29T09:18:59.239Z,100058.84
2022-07-29T09:20:09.407Z,100050.75
2022-07-29T09:21:30.404Z,100052.44
2022-07-29T09:22:32.906Z,100050.84
2022-07-29T09:23:34.401Z,100054.19
2022-07-29T09:24:35.865Z,100041.09
2022-07-29T09:25:38.271Z,100054.28
2022-07-29T09:26:40.506Z,100048.16
2022-07-29T09:27:42.202Z,100055.22
2022-07-29T09:28:43.803Z,100051.53
2022-07-29T09:29:45.301Z,100046.63
2022-07-29T09:30:57.294Z,100051.19
2022-07-29T09:31:58.877Z,100045.47
2022-07-29T09:33:02.258Z,100049.66
2022-07-29T09:34:03.895Z,100046.44
2022-07-29T09:35:21.414Z,100037.81
2022-07-29T09:36:22.888Z,100037.84
2022-07-29T09:37:28.630Z,100039.13
2022-07-29T09:38:30.140Z,100044.91
2022-07-29T09:39:38.822Z,100037.16
2022-07-29T09:40:40.351Z,100045.38
2022-07-29T09:41:45.543Z,100038.88
2022-07-29T09:42:47.257Z,100038.91
2022-07-29T09:43:55.322Z,100043.09
2022-07-29T09:44:56.861Z,100039.00
2022-07-29T09:46:12.340Z,100043.97
2022-07-29T09:47:14.075Z,100044.38
2022-07-29T09:48:16.319Z,100042.38
2022-07-29T09:49:17.890Z,100034.56
2022-07-29T09:50:24.970Z,100040.31
2022-07-29T09:51:37.825Z,100042.00
2022-07-29T09:52:47.551Z,100041.19
2022-07-29T09:53:49.108Z,100042.00
2022-07-29T09:54:51.223Z,100037.53
2022-07-29T09:55:52.937Z,100037.16
2022-07-29T09:56:55.007Z,100036.78
2022-07-29T09:57:59.371Z,100029.38
2022-07-29T09:59:07.451Z,100033.47
2022-07-29T10:00:10.287Z,100036.38
2022-07-29T10:01:15.115Z,100028.16
2022-07-29T10:02:21.939Z,100037.22
2022-07-29T10:03:25.451Z,100032.69
2022-07-29T10:04:39.982Z,100034.34
2022-07-29T10:05:43.002Z,100033.94
2022-07-29T10:07:03.908Z,100036.03
2022-07-29T10:08:06.875Z,100031.50
2022-07-29T10:09:10.969Z,100024.50
2022-07-29T10:10:18.818Z,100033.16
2022-07-29T10:11:20.335Z,100030.28
2022-07-29T10:12:21.906Z,100034.78
2022-07-29T10:13:23.476Z,100024.94
2022-07-29T10:14:25.017Z,100038.09
2022-07-29T10:15:27.567Z,100030.25
2022-07-29T10:16:33.622Z,100027.78
2022-07-29T10:17:35.207Z,100027.38
2022-07-29T10:18:43.649Z,100029.00
2022-07-29T10:19:45.162Z,100029.84
2022-07-29T10:20:46.660Z,100025.72
2022-07-29T10:21:48.150Z,100021.56
2022-07-29T10:22:53.375Z,100023.66
2022-07-29T10:23:55.223Z,100024.47
2022-07-29T10:25:02.677Z,100021.97
2022-07-29T10:26:04.683Z,100022.38
2022-07-29T10:27:06.947Z,100013.31
2022-07-29T10:28:11.212Z,100015.78
2022-07-29T10:29:15.018Z,100014.94
2022-07-29T10:30:17.382Z,100015.72
2022-07-29T10:31:27.822Z,100014.09
2022-07-29T10:32:35.025Z,100015.31
2022-07-29T10:33:59.771Z,100012.81
2022-07-29T10:35:02.791Z,100016.53
2022-07-29T10:36:24.463Z,100014.47
2022-07-29T10:37:25.941Z,100018.16
2022-07-29T10:38:45.918Z,100015.66
2022-07-29T10:40:00.503Z,100015.66
2022-07-29T10:41:27.380Z,100018.09
2022-07-29T10:42:34.390Z,100016.84
2022-07-29T10:43:38.791Z,100020.13
2022-07-29T10:44:43.360Z,100013.09
2022-07-29T10:45:46.236Z,100020.91
2022-07-29T10:46:48.062Z,100011.41
2022-07-29T10:47:49.649Z,100023.78
2022-07-29T10:49:06.560Z,100019.22
2022-07-29T10:50:12.791Z,100020.44
2022-07-29T10:51:19.199Z,100022.88
2022-07-29T10:52:20.926Z,100016.69
2022-07-29T10:54:05.241Z,100008.03
2022-07-29T10:55:07.903Z,100012.53
2022-07-29T10:56:23.778Z,100005.06
2022-07-29T10:57:52.756Z,100003.84
2022-07-29T10:59:11.589Z,100001.38
2022-07-29T11:00:14.339Z,99995.59
2022-07-29T11:01:38.992Z,99998.88
2022-07-29T11:02:42.072Z,99999.25
2022-07-29T11:03:49.732Z,100001.28
2022-07-29T11:04:52.792Z,99995.13
2022-07-29T11:05:55.257Z,99999.63
2022-07-29T11:06:59.469Z,99993.06
2022-07-29T11:08:20.206Z,99995.56
2022-07-29T11:09:34.902Z,99999.72
2022-07-29T11:10:39.764Z,99984.84
2022-07-29T11:11:43.988Z,99991.50
2022-07-29T11:12:49.474Z,99983.25
2022-07-29T11:13:52.398Z,99981.63
2022-07-29T11:14:59.954Z,99988.25
2022-07-29T11:16:01.690Z,99992.34
2022-07-29T11:17:06.449Z,99984.13
2022-07-29T11:18:08.551Z,99992.38
2022-07-29T11:19:21.552Z,99989.50
2022-07-29T11:20:37.923Z,99984.97
2022-07-29T11:21:55.329Z,99996.13
2022-07-29T11:23:00.317Z,99991.63
2022-07-29T11:24:14.901Z,99987.50
2022-07-29T11:25:50.143Z,99984.19
2022-07-29T11:27:11.969Z,99986.69
2022-07-29T11:29:55.639Z,99995.72
2022-07-29T11:30:57.844Z,99980.06
2022-07-29T11:32:09.271Z,99990.78
2022-07-29T11:33:54.057Z,99993.19
2022-07-29T11:35:37.131Z,99998.94
2022-07-29T11:36:59.904Z,99992.75
2022-07-29T11:38:20.824Z,99983.22
2022-07-29T11:39:26.230Z,99996.03
2022-07-29T11:40:27.811Z,99989.84
2022-07-29T11:41:31.761Z,99997.25
2022-07-29T11:42:37.303Z,99991.53
2022-07-29T11:43:47.115Z,99991.09
2022-07-29T11:45:41.640Z,99995.22
2022-07-29T11:47:01.243Z,99991.13
2022-07-29T11:48:31.405Z,99988.25
2022-07-29T11:50:48.168Z,99989.47
2022-07-29T11:51:53.231Z,99992.34
2022-07-29T11:52:54.786Z,99991.53
2022-07-29T11:54:04.030Z,99985.75
2022-07-29T11:55:09.822Z,99991.13
2022-07-29T11:56:11.860Z,99989.88
2022-07-29T11:57:19.167Z,99987.38
2022-07-29T11:58:27.141Z,99982.03
2022-07-29T11:59:33.028Z,99982.44
2022-07-29T12:00:38.780Z,99977.06
2022-07-29T12:01:58.709Z,99979.50
2022-07-29T12:03:15.417Z,99977.88
2022-07-29T12:04:16.943Z,99974.13
2022-07-29T12:05:36.326Z,99973.31
2022-07-29T12:06:38.557Z,99972.06
2022-07-29T12:07:41.135Z,99963.81
2022-07-29T12:08:47.437Z,99969.59
2022-07-29T12:09:52.840Z,99972.06
2022-07-29T12:10:58.396Z,99962.97
2022-07-29T12:12:04.925Z,99967.88
2022-07-29T12:13:12.241Z,99969.09
2022-07-29T12:14:32.982Z,99971.59
2022-07-29T12:15:39.268Z,99969.09
2022-07-29T12:16:48.018Z,99975.69
2022-07-29T12:17:49.619Z,99964.94
2022-07-29T12:18:58.127Z,99966.16
2022-07-29T12:20:00.506Z,99964.47
2022-07-29T12:21:07.389Z,99961.97
2022-07-29T12:22:09.524Z,99965.25
2022-07-29T12:23:13.000Z,99954.94
2022-07-29T12:24:14.973Z,99961.88
2022-07-29T12:25:32.243Z,99957.31
2022-07-29T12:26:35.637Z,99966.38
2022-07-29T12:27:40.490Z,99961.41